Time;durP1;ratioP1;P1;durP2;ratioP2;P2;SDS_P1;SDS_P2;PMS_P1;PMS_P2;Temp;Humidity;BMP_temperature;BMP_pressure;BME280_temperature;BME280_humidity;BME280_pressure;Samples;Min_cycle;Max_cycle;Signal;HPM_P1;HPM_P2
2022/09/30 00:02:15;;;;;;;;;;;7.50;77.50;;;;;;5077517;28;20503;-77
2022/09/30 00:04:40;;;;;;;;;;;7.50;77.50;;;;;;5072142;28;19920;-74
2022/09/30 00:07:06;;;;;;;;;;;7.50;77.60;;;;;;5087269;28;20620;-75
2022/09/30 00:09:31;;;;;;;;;;;7.50;77.50;;;;;;5071697;28;19923;-75
2022/09/30 00:11:57;;;;;;;;;;;7.50;77.50;;;;;;5041980;28;20010;-75
2022/09/30 00:14:23;;;;;;;;;;;7.50;77.50;;;;;;5076173;28;19920;-74
2022/09/30 00:16:49;;;;;;;;;;;7.50;77.60;;;;;;5073911;28;20415;-75
2022/09/30 00:19:14;;;;;;;;;;;7.50;77.50;;;;;;5074267;28;19981;-76
2022/09/30 00:21:40;;;;;;;;;;;7.50;77.60;;;;;;5058111;28;19978;-76
2022/09/30 00:24:05;;;;;;;;;;;7.50;77.50;;;;;;5071660;28;19923;-75
2022/09/30 00:26:31;;;;;;;;;;;7.50;77.60;;;;;;5074090;28;19931;-75
2022/09/30 00:28:57;;;;;;;;;;;7.50;77.60;;;;;;5054907;28;19913;-76
2022/09/30 00:31:22;;;;;;;;;;;7.50;77.60;;;;;;5073834;28;19924;-75
2022/09/30 00:34:05;;;;;;;;;;;7.50;77.60;;;;;;5073401;28;20249;-76
2022/09/30 00:36:34;;;;;;;;;;;7.50;77.60;;;;;;5091473;28;19912;-75
2022/09/30 00:38:59;;;;;;;;;;;7.50;77.60;;;;;;5030467;28;19912;-76
2022/09/30 00:41:26;;;;;;;;;;;7.50;77.60;;;;;;5075760;28;19995;-76
2022/09/30 00:43:52;;;;;;;;;;;7.50;77.60;;;;;;5060824;28;19924;-76
2022/09/30 00:46:19;;;;;;;;;;;7.50;77.60;;;;;;5064277;28;19917;-75
2022/09/30 00:48:44;;;;;;;;;;;7.50;77.60;;;;;;5045325;28;19921;-76
2022/09/30 00:51:10;;;;;;;;;;;7.50;77.60;;;;;;5062713;28;20394;-76
2022/09/30 00:53:43;;;;;;;;;;;7.50;77.60;;;;;;5067013;28;19916;-76
2022/09/30 00:56:09;;;;;;;;;;;7.50;77.70;;;;;;5061193;28;19908;-75
2022/09/30 00:58:35;;;;;;;;;;;7.50;77.60;;;;;;5084508;28;19915;-76
2022/09/30 01:01:01;;;;;;;;;;;7.40;77.60;;;;;;5083566;28;19909;-77
2022/09/30 01:03:30;;;;;;;;;;;7.40;77.60;;;;;;5080892;28;20003;-77
2022/09/30 01:05:55;;;;;;;;;;;7.40;77.70;;;;;;5066900;28;20391;-75
2022/09/30 01:08:21;;;;;;;;;;;7.40;77.70;;;;;;5084354;28;19970;-76
2022/09/30 01:10:46;;;;;;;;;;;7.40;77.70;;;;;;5083913;28;19920;-76
2022/09/30 01:13:12;;;;;;;;;;;7.50;77.80;;;;;;5080829;28;19923;-75
2022/09/30 01:16:05;;;;;;;;;;;7.50;77.70;;;;;;5059261;28;20758;-76
2022/09/30 01:18:36;;;;;;;;;;;7.40;77.70;;;;;;5032442;28;20319;-76
2022/09/30 01:21:10;;;;;;;;;;;7.40;77.70;;;;;;5052923;28;19913;-76
2022/09/30 01:23:46;;;;;;;;;;;7.40;77.70;;;;;;5062222;28;19912;-76
2022/09/30 01:26:15;;;;;;;;;;;7.40;77.70;;;;;;5078928;28;19913;-75
2022/09/30 01:28:41;;;;;;;;;;;7.50;77.70;;;;;;5062610;28;20292;-76
2022/09/30 01:31:06;;;;;;;;;;;7.50;77.70;;;;;;5067370;28;19943;-76
2022/09/30 01:33:44;;;;;;;;;;;7.50;77.70;;;;;;5079344;28;19917;-75
2022/09/30 01:36:14;;;;;;;;;;;7.50;77.70;;;;;;5074832;28;19995;-76
2022/09/30 01:39:09;;;;;;;;;;;7.50;77.70;;;;;;5057620;28;19916;-75
2022/09/30 01:41:44;;;;;;;;;;;7.50;77.80;;;;;;5041426;28;19912;-76
2022/09/30 01:44:18;;;;;;;;;;;7.50;77.80;;;;;;5073501;28;19920;-76
2022/09/30 01:47:03;;;;;;;;;;;7.50;77.70;;;;;;5059669;28;19942;-77
2022/09/30 01:49:30;;;;;;;;;;;7.50;77.70;;;;;;5008172;28;19926;-75
2022/09/30 01:52:15;;;;;;;;;;;7.50;77.70;;;;;;5070542;28;19928;-77
2022/09/30 01:55:00;;;;;;;;;;;7.50;77.70;;;;;;5086988;28;20380;-76
2022/09/30 01:57:42;;;;;;;;;;;7.50;77.60;;;;;;5059076;28;19916;-76
2022/09/30 02:00:20;;;;;;;;;;;7.60;77.70;;;;;;5086912;28;20792;-76
2022/09/30 02:02:50;;;;;;;;;;;7.50;77.70;;;;;;5045180;28;20085;-75
2022/09/30 02:05:30;;;;;;;;;;;7.60;77.70;;;;;;5056766;28;19920;-75
2022/09/30 02:07:59;;;;;;;;;;;7.60;77.70;;;;;;5058771;28;19929;-75
2022/09/30 02:10:33;;;;;;;;;;;7.60;77.70;;;;;;5059636;28;19916;-76
2022/09/30 02:13:09;;;;;;;;;;;7.50;77.60;;;;;;5045172;28;19989;-76
2022/09/30 02:15:36;;;;;;;;;;;7.50;77.70;;;;;;5089490;28;19954;-76
2022/09/30 02:18:03;;;;;;;;;;;7.50;77.70;;;;;;5056385;28;19916;-76
2022/09/30 02:20:30;;;;;;;;;;;7.50;77.80;;;;;;5076301;28;22756;-75
2022/09/30 02:22:58;;;;;;;;;;;7.50;77.70;;;;;;5086304;28;19970;-76
2022/09/30 02:25:32;;;;;;;;;;;7.50;77.70;;;;;;5070565;28;19922;-76
2022/09/30 02:27:58;;;;;;;;;;;7.50;77.80;;;;;;5073361;28;19912;-75
2022/09/30 02:30:24;;;;;;;;;;;7.40;77.70;;;;;;5072647;28;19977;-74
2022/09/30 02:32:55;;;;;;;;;;;7.40;77.80;;;;;;5058299;28;19916;-75
2022/09/30 02:35:28;;;;;;;;;;;7.50;77.90;;;;;;5087031;28;19916;-76
2022/09/30 02:37:55;;;;;;;;;;;7.50;77.90;;;;;;5065851;28;19971;-76
2022/09/30 02:40:30;;;;;;;;;;;7.50;77.90;;;;;;5077564;27;19918;-75
2022/09/30 02:42:55;;;;;;;;;;;7.50;77.90;;;;;;5037805;28;20384;-76
2022/09/30 02:45:21;;;;;;;;;;;7.50;77.80;;;;;;5064374;28;20007;-75
2022/09/30 02:47:47;;;;;;;;;;;7.50;77.80;;;;;;5055070;28;19916;-75
2022/09/30 02:50:12;;;;;;;;;;;7.50;77.80;;;;;;5060142;28;20543;-76
2022/09/30 02:52:52;;;;;;;;;;;7.50;77.90;;;;;;5070273;28;19937;-76
2022/09/30 02:55:18;;;;;;;;;;;7.50;77.80;;;;;;5043379;28;19956;-76
2022/09/30 02:57:55;;;;;;;;;;;7.50;77.80;;;;;;5064315;28;20306;-75
2022/09/30 03:00:20;;;;;;;;;;;7.50;77.80;;;;;;5090177;27;20544;-76
2022/09/30 03:02:46;;;;;;;;;;;7.50;77.80;;;;;;5075322;28;19970;-77
2022/09/30 03:05:11;;;;;;;;;;;7.50;77.80;;;;;;5089452;28;19966;-76
2022/09/30 03:07:37;;;;;;;;;;;7.50;77.80;;;;;;5077255;28;19974;-76
2022/09/30 03:10:10;;;;;;;;;;;7.50;77.80;;;;;;5074380;28;19938;-74
2022/09/30 03:12:42;;;;;;;;;;;7.50;77.80;;;;;;5079482;28;19937;-77
2022/09/30 03:15:31;;;;;;;;;;;7.50;77.80;;;;;;5076621;28;19912;-75
2022/09/30 03:17:56;;;;;;;;;;;7.50;77.80;;;;;;5056322;28;19916;-76
2022/09/30 03:20:25;;;;;;;;;;;7.40;77.80;;;;;;5072414;28;19970;-75
2022/09/30 03:22:58;;;;;;;;;;;7.40;77.90;;;;;;5073814;28;19916;-75
2022/09/30 03:25:29;;;;;;;;;;;7.40;77.90;;;;;;5083920;28;20382;-75
2022/09/30 03:28:11;;;;;;;;;;;7.30;77.90;;;;;;5043585;28;19920;-76
2022/09/30 03:30:40;;;;;;;;;;;7.40;78.00;;;;;;5068434;28;19923;-75
2022/09/30 03:33:06;;;;;;;;;;;7.30;77.90;;;;;;5030240;28;20542;-77
2022/09/30 03:35:31;;;;;;;;;;;7.40;78.00;;;;;;5090556;28;19987;-77
2022/09/30 03:38:12;;;;;;;;;;;7.40;78.00;;;;;;5071356;28;19917;-76
2022/09/30 03:40:42;;;;;;;;;;;7.40;78.00;;;;;;5077270;28;19922;-75
2022/09/30 03:43:08;;;;;;;;;;;7.40;78.00;;;;;;5053151;28;19931;-76
2022/09/30 03:45:38;;;;;;;;;;;7.40;78.00;;;;;;5073440;28;19912;-74
2022/09/30 03:48:04;;;;;;;;;;;7.40;77.90;;;;;;5054314;28;19912;-76
2022/09/30 03:50:30;;;;;;;;;;;7.40;78.00;;;;;;5059778;28;19930;-77
2022/09/30 03:52:55;;;;;;;;;;;7.40;78.00;;;;;;5048871;28;19916;-76
2022/09/30 03:55:21;;;;;;;;;;;7.40;78.00;;;;;;5056677;28;19927;-76
2022/09/30 03:57:48;;;;;;;;;;;7.40;78.00;;;;;;5059744;28;19919;-76
2022/09/30 04:00:14;;;;;;;;;;;7.40;78.00;;;;;;5072217;28;19966;-76
2022/09/30 04:02:40;;;;;;;;;;;7.40;78.00;;;;;;5074234;28;19928;-76
2022/09/30 04:05:05;;;;;;;;;;;7.40;78.80;;;;;;5050732;28;19916;-77
2022/09/30 04:07:31;;;;;;;;;;;7.40;78.00;;;;;;5074877;28;20287;-75
2022/09/30 04:09:57;;;;;;;;;;;7.40;78.00;;;;;;5075285;28;19924;-75
2022/09/30 04:12:22;;;;;;;;;;;7.40;78.00;;;;;;5075104;28;19916;-75
2022/09/30 04:14:48;;;;;;;;;;;7.40;77.90;;;;;;5077316;28;20571;-75
2022/09/30 04:17:13;;;;;;;;;;;7.30;77.90;;;;;;5077152;28;20343;-75
2022/09/30 04:19:39;;;;;;;;;;;7.30;78.00;;;;;;5074358;28;19964;-75
2022/09/30 04:22:05;;;;;;;;;;;7.30;78.00;;;;;;5074825;28;19912;-76
2022/09/30 04:24:30;;;;;;;;;;;7.30;78.00;;;;;;5076821;28;20003;-77
2022/09/30 04:26:56;;;;;;;;;;;7.30;77.90;;;;;;5062519;28;20035;-77
2022/09/30 04:29:21;;;;;;;;;;;7.20;78.00;;;;;;5078030;28;19990;-76
2022/09/30 04:31:47;;;;;;;;;;;7.30;78.00;;;;;;5057238;28;20007;-75
2022/09/30 04:34:12;;;;;;;;;;;7.30;78.10;;;;;;5073330;28;19967;-76
2022/09/30 04:36:38;;;;;;;;;;;7.20;78.00;;;;;;5078797;28;19916;-75
2022/09/30 04:39:03;;;;;;;;;;;7.20;78.00;;;;;;5056254;28;19920;-76
2022/09/30 04:41:31;;;;;;;;;;;7.20;78.00;;;;;;5045858;28;20538;-76
2022/09/30 04:43:56;;;;;;;;;;;7.20;78.10;;;;;;5077136;28;20389;-75
2022/09/30 04:46:22;;;;;;;;;;;7.20;78.10;;;;;;5077688;28;20391;-75
2022/09/30 04:48:47;;;;;;;;;;;7.20;78.10;;;;;;5045633;28;19912;-76
2022/09/30 04:51:19;;;;;;;;;;;7.20;78.10;;;;;;5058238;28;20316;-76
2022/09/30 04:53:45;;;;;;;;;;;7.20;78.10;;;;;;5069920;28;20566;-75
2022/09/30 04:56:11;;;;;;;;;;;7.20;78.10;;;;;;5075942;28;19912;-75
2022/09/30 04:58:36;;;;;;;;;;;7.20;78.10;;;;;;5057229;28;19923;-75
2022/09/30 05:01:02;;;;;;;;;;;7.20;78.20;;;;;;5076791;28;20369;-75
2022/09/30 05:03:27;;;;;;;;;;;7.20;78.20;;;;;;5074490;28;20414;-76
2022/09/30 05:05:53;;;;;;;;;;;7.10;78.10;;;;;;5061772;28;20387;-75
2022/09/30 05:08:18;;;;;;;;;;;7.20;78.20;;;;;;5078560;28;19908;-75
2022/09/30 05:10:46;;;;;;;;;;;7.20;78.20;;;;;;5074158;28;20311;-74
2022/09/30 05:13:11;;;;;;;;;;;7.10;78.10;;;;;;5057416;28;19985;-75
2022/09/30 05:15:37;;;;;;;;;;;7.10;78.20;;;;;;5062598;28;19912;-75
2022/09/30 05:18:02;;;;;;;;;;;7.10;78.20;;;;;;5058382;28;20482;-75
2022/09/30 05:20:28;;;;;;;;;;;7.20;78.20;;;;;;5070188;28;19968;-76
2022/09/30 05:22:54;;;;;;;;;;;7.10;78.20;;;;;;5089033;28;19920;-75
2022/09/30 05:25:20;;;;;;;;;;;7.10;78.20;;;;;;5076368;28;19927;-75
2022/09/30 05:27:49;;;;;;;;;;;7.10;78.20;;;;;;5075696;28;19916;-75
2022/09/30 05:30:14;;;;;;;;;;;7.10;78.20;;;;;;5075111;28;20735;-74
2022/09/30 05:32:40;;;;;;;;;;;7.00;78.30;;;;;;5055971;28;19912;-76
2022/09/30 05:35:16;;;;;;;;;;;7.00;78.30;;;;;;5071709;28;21493;-76
2022/09/30 05:37:42;;;;;;;;;;;7.10;78.40;;;;;;5088732;27;19912;-76
2022/09/30 05:40:07;;;;;;;;;;;7.00;78.40;;;;;;5070865;28;19920;-76
2022/09/30 05:42:35;;;;;;;;;;;7.10;78.40;;;;;;5072544;28;20349;-75
2022/09/30 05:45:05;;;;;;;;;;;7.00;78.30;;;;;;5053148;28;19928;-76
2022/09/30 05:47:31;;;;;;;;;;;7.10;78.40;;;;;;5046121;28;19920;-75
2022/09/30 05:49:56;;;;;;;;;;;7.00;78.30;;;;;;5052140;28;19939;-76
2022/09/30 05:52:22;;;;;;;;;;;7.10;78.40;;;;;;5053684;28;20570;-75
2022/09/30 05:54:47;;;;;;;;;;;7.10;78.40;;;;;;5051355;28;19919;-76
2022/09/30 05:57:13;;;;;;;;;;;7.10;78.40;;;;;;5055250;28;19920;-75
2022/09/30 05:59:38;;;;;;;;;;;7.10;79.20;;;;;;5054324;28;19912;-75
2022/09/30 06:02:05;;;;;;;;;;;7.10;78.30;;;;;;5068369;28;19919;-75
2022/09/30 06:04:31;;;;;;;;;;;7.10;78.40;;;;;;5050100;28;19927;-75
2022/09/30 06:06:56;;;;;;;;;;;7.10;78.40;;;;;;5055635;28;19916;-75
2022/09/30 06:09:21;;;;;;;;;;;7.00;78.40;;;;;;5052599;28;19955;-76
2022/09/30 06:11:47;;;;;;;;;;;7.00;78.30;;;;;;5052542;28;19924;-75
2022/09/30 06:14:12;;;;;;;;;;;7.10;78.50;;;;;;5053529;28;19943;-76
2022/09/30 06:16:38;;;;;;;;;;;7.00;78.30;;;;;;5052715;28;19913;-75
2022/09/30 06:19:05;;;;;;;;;;;7.00;78.70;;;;;;5053326;28;20384;-75
2022/09/30 06:21:30;;;;;;;;;;;7.10;78.50;;;;;;5053202;28;20491;-76
2022/09/30 06:23:56;;;;;;;;;;;7.10;78.40;;;;;;5053431;28;19912;-75
2022/09/30 06:26:21;;;;;;;;;;;7.10;78.40;;;;;;5052180;28;20324;-76
2022/09/30 06:28:47;;;;;;;;;;;7.00;78.30;;;;;;5056880;28;19916;-76
2022/09/30 06:31:13;;;;;;;;;;;7.10;78.50;;;;;;5054723;28;19924;-75
2022/09/30 06:33:38;;;;;;;;;;;7.00;78.50;;;;;;5054419;28;19923;-75
2022/09/30 06:36:05;;;;;;;;;;;7.10;78.50;;;;;;5051279;28;19913;-75
2022/09/30 06:38:35;;;;;;;;;;;7.10;78.50;;;;;;5037005;28;19916;-75
2022/09/30 06:41:01;;;;;;;;;;;7.10;78.50;;;;;;5050564;28;19955;-76
2022/09/30 06:43:27;;;;;;;;;;;7.10;78.50;;;;;;5021938;28;20001;-75
2022/09/30 06:45:52;;;;;;;;;;;7.10;78.40;;;;;;5069493;28;19920;-77
2022/09/30 06:48:18;;;;;;;;;;;7.10;78.50;;;;;;5067943;28;20468;-75
2022/09/30 06:50:44;;;;;;;;;;;7.10;78.40;;;;;;5066487;28;20435;-76
2022/09/30 06:53:10;;;;;;;;;;;7.10;78.40;;;;;;5069646;28;19962;-75
2022/09/30 06:55:37;;;;;;;;;;;7.10;78.40;;;;;;5056859;28;19916;-76
2022/09/30 06:58:03;;;;;;;;;;;7.00;78.40;;;;;;5053000;28;19973;-75
2022/09/30 07:00:29;;;;;;;;;;;7.00;78.40;;;;;;5072312;28;19920;-76
2022/09/30 07:02:55;;;;;;;;;;;7.00;78.50;;;;;;5058008;28;20006;-76
2022/09/30 07:05:21;;;;;;;;;;;7.00;78.50;;;;;;5074908;28;19916;-75
2022/09/30 07:07:48;;;;;;;;;;;7.00;78.60;;;;;;5058419;28;19916;-75
2022/09/30 07:10:13;;;;;;;;;;;7.00;78.60;;;;;;5073672;28;19994;-75
2022/09/30 07:12:39;;;;;;;;;;;7.10;78.70;;;;;;5074667;28;19939;-75
2022/09/30 07:15:05;;;;;;;;;;;7.10;78.60;;;;;;5070111;28;19919;-74
2022/09/30 07:17:31;;;;;;;;;;;7.10;78.60;;;;;;5070638;28;19921;-74
2022/09/30 07:19:57;;;;;;;;;;;7.20;78.60;;;;;;5068653;28;19916;-75
2022/09/30 07:22:29;;;;;;;;;;;7.20;78.60;;;;;;5070530;28;19920;-76
2022/09/30 07:24:57;;;;;;;;;;;7.30;78.60;;;;;;5063542;28;19991;-76
2022/09/30 07:27:24;;;;;;;;;;;7.30;78.50;;;;;;5087543;28;20546;-75
2022/09/30 07:29:50;;;;;;;;;;;7.30;78.50;;;;;;5072744;28;19920;-75
2022/09/30 07:32:16;;;;;;;;;;;7.30;78.50;;;;;;5053853;28;19919;-76
2022/09/30 07:34:42;;;;;;;;;;;7.30;78.50;;;;;;5069903;28;19973;-75
2022/09/30 07:37:09;;;;;;;;;;;7.40;78.50;;;;;;5071083;28;19916;-75
2022/09/30 07:39:35;;;;;;;;;;;7.40;78.50;;;;;;5082781;28;20015;-75
2022/09/30 07:42:03;;;;;;;;;;;7.40;78.50;;;;;;5075830;28;20404;-76
2022/09/30 07:44:28;;;;;;;;;;;7.50;78.50;;;;;;5072009;28;20282;-76
2022/09/30 07:46:53;;;;;;;;;;;7.50;78.40;;;;;;5072830;28;19919;-75
2022/09/30 07:49:24;;;;;;;;;;;7.60;78.40;;;;;;5073009;28;19916;-75
2022/09/30 07:51:50;;;;;;;;;;;7.70;78.40;;;;;;5072252;28;19923;-75
2022/09/30 07:54:16;;;;;;;;;;;7.70;78.30;;;;;;5072484;28;19947;-74
2022/09/30 07:56:42;;;;;;;;;;;7.70;78.30;;;;;;5074423;28;19916;-77
2022/09/30 07:59:08;;;;;;;;;;;7.70;78.30;;;;;;5074281;28;20390;-76
2022/09/30 08:01:34;;;;;;;;;;;7.70;78.30;;;;;;5074891;28;20042;-75
2022/09/30 08:04:00;;;;;;;;;;;7.80;78.30;;;;;;5072681;28;20057;-76
2022/09/30 08:06:26;;;;;;;;;;;7.80;78.30;;;;;;5056758;28;19916;-76
2022/09/30 08:08:52;;;;;;;;;;;7.90;78.30;;;;;;5075281;28;20318;-76
2022/09/30 08:11:18;;;;;;;;;;;7.90;78.20;;;;;;5063221;28;20009;-76
2022/09/30 08:13:43;;;;;;;;;;;8.00;78.20;;;;;;5075363;28;20400;-76
2022/09/30 08:16:09;;;;;;;;;;;8.00;78.20;;;;;;5073673;28;19916;-75
2022/09/30 08:18:34;;;;;;;;;;;8.10;78.20;;;;;;5074217;28;20013;-75
2022/09/30 08:21:04;;;;;;;;;;;8.20;78.30;;;;;;5070494;28;20443;-76
2022/09/30 08:23:29;;;;;;;;;;;8.20;78.10;;;;;;5076332;28;19927;-75
2022/09/30 08:26:01;;;;;;;;;;;8.30;78.90;;;;;;5072558;28;19916;-75
2022/09/30 08:28:30;;;;;;;;;;;8.30;78.00;;;;;;5073981;28;19920;-75
2022/09/30 08:30:55;;;;;;;;;;;8.40;78.10;;;;;;5070734;28;19942;-76
2022/09/30 08:33:21;;;;;;;;;;;8.40;78.00;;;;;;5045163;28;20451;-76
2022/09/30 08:35:46;;;;;;;;;;;8.50;78.00;;;;;;5078901;28;19916;-75
2022/09/30 08:38:12;;;;;;;;;;;8.60;77.90;;;;;;5071376;28;19917;-75
2022/09/30 08:40:41;;;;;;;;;;;8.60;77.90;;;;;;5071786;28;19916;-76
2022/09/30 08:43:12;;;;;;;;;;;8.70;78.00;;;;;;5058826;28;19920;-75
2022/09/30 08:45:40;;;;;;;;;;;8.70;77.90;;;;;;5076527;28;19916;-76
2022/09/30 08:48:15;;;;;;;;;;;8.80;77.90;;;;;;5075460;28;19920;-75
2022/09/30 08:50:52;;;;;;;;;;;8.90;77.80;;;;;;5079298;28;20307;-75
2022/09/30 08:53:23;;;;;;;;;;;9.00;77.80;;;;;;5042373;28;20449;-76
2022/09/30 08:55:48;;;;;;;;;;;9.10;77.70;;;;;;5059579;28;19997;-76
2022/09/30 08:58:15;;;;;;;;;;;9.30;77.70;;;;;;5059486;28;20006;-76
2022/09/30 09:00:41;;;;;;;;;;;9.40;77.60;;;;;;5063232;28;19916;-75
2022/09/30 09:03:08;;;;;;;;;;;9.40;77.40;;;;;;5075141;28;19923;-76
2022/09/30 09:05:49;;;;;;;;;;;9.50;77.40;;;;;;5073431;28;19921;-76
2022/09/30 09:08:15;;;;;;;;;;;9.60;77.40;;;;;;5059851;28;19920;-76
2022/09/30 09:10:44;;;;;;;;;;;9.60;77.20;;;;;;5078030;28;19919;-76
2022/09/30 09:13:28;;;;;;;;;;;9.70;77.20;;;;;;5042882;28;20487;-75
2022/09/30 09:16:03;;;;;;;;;;;9.80;77.20;;;;;;5077190;28;20376;-77
2022/09/30 09:18:41;;;;;;;;;;;9.90;77.10;;;;;;5076843;28;19920;-75
2022/09/30 09:21:08;;;;;;;;;;;10.00;77.10;;;;;;5076973;28;19978;-76
2022/09/30 09:23:33;;;;;;;;;;;10.10;76.90;;;;;;5076626;28;19927;-75
2022/09/30 09:25:59;;;;;;;;;;;10.20;76.90;;;;;;5075101;28;19916;-76
2022/09/30 09:28:35;;;;;;;;;;;10.30;77.00;;;;;;5073528;28;20261;-76
2022/09/30 09:31:01;;;;;;;;;;;10.40;76.90;;;;;;5059503;28;19915;-76
2022/09/30 09:33:28;;;;;;;;;;;10.50;76.80;;;;;;5078008;28;20443;-75
2022/09/30 09:35:59;;;;;;;;;;;10.60;76.70;;;;;;5057932;28;19919;-76
2022/09/30 09:38:44;;;;;;;;;;;10.60;76.60;;;;;;5061141;28;20055;-76
2022/09/30 09:41:21;;;;;;;;;;;10.70;76.50;;;;;;5089939;28;20303;-77
2022/09/30 09:43:52;;;;;;;;;;;10.80;76.50;;;;;;5064715;28;19935;-77
2022/09/30 09:46:20;;;;;;;;;;;10.90;76.50;;;;;;5065617;28;19923;-75
2022/09/30 09:48:46;;;;;;;;;;;10.90;76.40;;;;;;5074306;28;19928;-76
2022/09/30 09:51:34;;;;;;;;;;;11.00;76.30;;;;;;5070522;28;19977;-77
2022/09/30 09:54:00;;;;;;;;;;;11.20;76.40;;;;;;5060504;28;19920;-76
2022/09/30 09:56:27;;;;;;;;;;;11.30;76.30;;;;;;5074207;28;19969;-75
2022/09/30 09:59:05;;;;;;;;;;;11.40;76.20;;;;;;5075487;28;19916;-77
2022/09/30 10:01:48;;;;;;;;;;;11.50;76.10;;;;;;5045717;28;19916;-75
2022/09/30 10:04:43;;;;;;;;;;;11.60;76.00;;;;;;5074072;28;20392;-75
2022/09/30 10:07:12;;;;;;;;;;;11.70;75.90;;;;;;5056490;28;19945;-79
2022/09/30 10:09:38;;;;;;;;;;;11.90;75.90;;;;;;5058489;28;19916;-77
2022/09/30 10:12:04;;;;;;;;;;;12.10;75.90;;;;;;5055930;28;19931;-78
2022/09/30 10:14:29;;;;;;;;;;;12.30;75.70;;;;;;5076139;28;19912;-75
2022/09/30 10:16:56;;;;;;;;;;;12.60;75.60;;;;;;5073988;28;19991;-77
2022/09/30 10:19:24;;;;;;;;;;;12.80;75.40;;;;;;5066450;28;19927;-75
2022/09/30 10:21:49;;;;;;;;;;;13.00;75.10;;;;;;5071291;28;19922;-77
2022/09/30 10:24:19;;;;;;;;;;;13.30;75.00;;;;;;5060084;28;20277;-77
2022/09/30 10:26:44;;;;;;;;;;;13.60;74.80;;;;;;5075353;28;20093;-76
2022/09/30 10:29:22;;;;;;;;;;;13.80;74.50;;;;;;5077792;28;20382;-76
2022/09/30 10:31:49;;;;;;;;;;;14.10;74.30;;;;;;5063294;28;19912;-76
2022/09/30 10:34:27;;;;;;;;;;;14.40;74.00;;;;;;5057602;28;19919;-77
2022/09/30 10:36:53;;;;;;;;;;;14.60;73.80;;;;;;5072231;28;19916;-78
2022/09/30 10:39:18;;;;;;;;;;;14.80;73.50;;;;;;5088900;28;19939;-77
2022/09/30 10:41:44;;;;;;;;;;;15.00;73.40;;;;;;5075721;28;19912;-76
2022/09/30 10:44:17;;;;;;;;;;;15.20;73.20;;;;;;5061251;28;19963;-73
2022/09/30 10:46:43;;;;;;;;;;;15.40;73.10;;;;;;5072080;28;19923;-77
2022/09/30 10:49:47;;;;;;;;;;;15.70;72.90;;;;;;5071973;28;19937;-75
2022/09/30 10:52:23;;;;;;;;;;;16.00;72.70;;;;;;4980497;28;19952;-76
2022/09/30 10:54:49;;;;;;;;;;;16.20;72.40;;;;;;4965445;28;19950;-76
2022/09/30 10:57:23;;;;;;;;;;;16.40;72.30;;;;;;4964897;28;19920;-75
2022/09/30 10:59:49;;;;;;;;;;;16.70;72.10;;;;;;4971510;28;19914;-76
2022/09/30 11:02:21;;;;;;;;;;;16.90;71.80;;;;;;4966041;28;19921;-76
2022/09/30 11:04:47;;;;;;;;;;;17.20;71.70;;;;;;4972997;28;19930;-77
2022/09/30 11:07:13;;;;;;;;;;;17.50;72.20;;;;;;4963363;28;19945;-76
2022/09/30 11:09:45;;;;;;;;;;;17.70;71.20;;;;;;4960294;28;19918;-77
2022/09/30 11:12:13;;;;;;;;;;;17.90;70.90;;;;;;4962476;28;19922;-76
2022/09/30 11:14:42;;;;;;;;;;;18.10;70.90;;;;;;4966486;28;19917;-77
2022/09/30 11:17:40;;;;;;;;;;;18.30;70.60;;;;;;4957678;28;20151;-77
2022/09/30 11:20:10;;;;;;;;;;;18.60;70.30;;;;;;4925603;28;21162;-76
2022/09/30 11:22:50;;;;;;;;;;;18.80;70.00;;;;;;4987108;28;20523;-78
2022/09/30 11:25:34;;;;;;;;;;;19.00;69.80;;;;;;5073839;28;19912;-77
2022/09/30 11:28:18;;;;;;;;;;;19.20;69.70;;;;;;5076260;28;19916;-78
2022/09/30 11:30:48;;;;;;;;;;;19.40;69.50;;;;;;5073056;28;19924;-78
2022/09/30 11:33:32;;;;;;;;;;;19.60;69.30;;;;;;5072907;28;19947;-77
2022/09/30 11:36:07;;;;;;;;;;;19.70;69.10;;;;;;5057002;28;19920;-77
2022/09/30 11:38:51;;;;;;;;;;;19.90;69.00;;;;;;5077262;28;19916;-76
2022/09/30 11:41:20;;;;;;;;;;;20.00;68.80;;;;;;5073320;28;19931;-77
2022/09/30 11:44:01;;;;;;;;;;;20.20;68.80;;;;;;5073601;28;19923;-78
2022/09/30 11:46:26;;;;;;;;;;;20.40;68.60;;;;;;5073101;28;19912;-77
2022/09/30 11:49:04;;;;;;;;;;;20.50;68.40;;;;;;5073240;28;19920;-78
2022/09/30 11:51:45;;;;;;;;;;;20.70;68.30;;;;;;5073336;28;19931;-78
2022/09/30 11:54:22;;;;;;;;;;;20.80;68.10;;;;;;5076731;28;19911;-78
2022/09/30 11:56:51;;;;;;;;;;;21.00;68.00;;;;;;5072584;28;19919;-77
2022/09/30 11:59:21;;;;;;;;;;;21.10;67.80;;;;;;5073653;28;19920;-77
2022/09/30 12:01:48;;;;;;;;;;;21.30;67.70;;;;;;5074080;28;19916;-77
2022/09/30 12:04:17;;;;;;;;;;;21.40;67.50;;;;;;5060530;28;19917;-77
2022/09/30 12:06:49;;;;;;;;;;;21.60;67.30;;;;;;5074075;28;19915;-77
2022/09/30 12:09:31;;;;;;;;;;;21.80;67.30;;;;;;5049550;28;19912;-78
2022/09/30 12:11:59;;;;;;;;;;;22.00;67.10;;;;;;5065216;28;20697;-78
2022/09/30 12:14:32;;;;;;;;;;;22.20;66.90;;;;;;5064048;28;19912;-76
2022/09/30 12:16:58;;;;;;;;;;;22.30;66.60;;;;;;5043121;28;19916;-77
2022/09/30 12:19:37;;;;;;;;;;;22.40;66.40;;;;;;5081750;28;19967;-76
2022/09/30 12:22:05;;;;;;;;;;;22.60;66.30;;;;;;5058510;28;19955;-78
2022/09/30 12:24:37;;;;;;;;;;;22.70;66.10;;;;;;5072808;28;19959;-78
2022/09/30 12:27:06;;;;;;;;;;;22.80;65.80;;;;;;5042488;28;19916;-77
2022/09/30 12:32:43;;;;;;;;;;;22.90;65.80;;;;;;5071080;28;19958;-78
2022/09/30 12:35:18;;;;;;;;;;;23.00;65.80;;;;;;5087297;28;19912;-78
2022/09/30 12:37:50;;;;;;;;;;;23.10;65.70;;;;;;5052593;28;19920;-77
2022/09/30 12:40:34;;;;;;;;;;;23.30;65.50;;;;;;5076704;28;20620;-78
2022/09/30 12:43:03;;;;;;;;;;;23.40;65.40;;;;;;5076332;28;19915;-77
2022/09/30 12:45:49;;;;;;;;;;;23.50;65.20;;;;;;5065432;28;19924;-78
2022/09/30 12:48:16;;;;;;;;;;;23.70;65.10;;;;;;5075784;28;19913;-77
2022/09/30 12:50:45;;;;;;;;;;;23.80;64.90;;;;;;5048115;28;19927;-77
2022/09/30 12:53:20;;;;;;;;;;;23.80;64.80;;;;;;5082709;28;20504;-78
2022/09/30 12:55:46;;;;;;;;;;;23.90;64.70;;;;;;5081118;28;19916;-78
2022/09/30 12:58:19;;;;;;;;;;;24.00;64.60;;;;;;5048909;28;19920;-77
2022/09/30 13:00:57;;;;;;;;;;;24.10;64.50;;;;;;5078028;28;20361;-78
2022/09/30 13:03:23;;;;;;;;;;;24.10;64.40;;;;;;5074167;28;19926;-77
2022/09/30 13:05:52;;;;;;;;;;;24.30;64.30;;;;;;5060035;28;19917;-78
2022/09/30 13:08:17;;;;;;;;;;;24.40;64.20;;;;;;5060683;28;20015;-79
2022/09/30 13:10:47;;;;;;;;;;;24.50;64.00;;;;;;5078125;28;19995;-78
2022/09/30 13:13:12;;;;;;;;;;;24.60;63.90;;;;;;5076540;28;19923;-78
2022/09/30 13:15:47;;;;;;;;;;;24.60;63.80;;;;;;5076228;28;19916;-78
2022/09/30 13:18:18;;;;;;;;;;;24.70;63.70;;;;;;5090192;28;19912;-77
2022/09/30 13:20:53;;;;;;;;;;;24.80;63.60;;;;;;5075765;28;20289;-77
2022/09/30 13:23:37;;;;;;;;;;;24.80;63.40;;;;;;5072348;28;19908;-77
2022/09/30 13:26:21;;;;;;;;;;;24.90;63.30;;;;;;5078226;28;19915;-77
2022/09/30 13:28:46;;;;;;;;;;;25.00;63.20;;;;;;5073054;28;19967;-77
2022/09/30 13:31:17;;;;;;;;;;;25.10;63.20;;;;;;5078717;28;20443;-78
2022/09/30 13:33:45;;;;;;;;;;;25.10;63.00;;;;;;5075206;28;20544;-78
2022/09/30 13:36:16;;;;;;;;;;;25.20;63.00;;;;;;5075960;28;19912;-78
2022/09/30 13:38:42;;;;;;;;;;;25.20;63.00;;;;;;5059801;28;19945;-78
2022/09/30 13:41:14;;;;;;;;;;;25.30;62.80;;;;;;5076999;28;20010;-78
2022/09/30 13:43:39;;;;;;;;;;;25.30;62.70;;;;;;5059236;28;20384;-80
2022/09/30 13:46:05;;;;;;;;;;;25.30;62.70;;;;;;5074635;28;20043;-78
2022/09/30 13:48:32;;;;;;;;;;;25.20;62.70;;;;;;5076511;28;19923;-78
2022/09/30 13:50:58;;;;;;;;;;;25.30;62.60;;;;;;5073398;28;19957;-78
2022/09/30 13:53:28;;;;;;;;;;;25.40;62.60;;;;;;5071688;28;19920;-77
2022/09/30 13:55:53;;;;;;;;;;;25.40;62.50;;;;;;5056440;28;19966;-78
2022/09/30 13:58:19;;;;;;;;;;;25.50;62.40;;;;;;5059536;28;20592;-78
2022/09/30 14:00:54;;;;;;;;;;;25.60;62.30;;;;;;5077700;28;19923;-78
2022/09/30 14:03:24;;;;;;;;;;;25.60;62.20;;;;;;5053150;28;20576;-79
2022/09/30 14:06:03;;;;;;;;;;;25.70;62.10;;;;;;5088831;28;20364;-78
2022/09/30 14:08:31;;;;;;;;;;;25.80;62.00;;;;;;5058362;28;19996;-77
2022/09/30 14:11:10;;;;;;;;;;;25.90;61.90;;;;;;5058960;28;19939;-79
2022/09/30 14:13:49;;;;;;;;;;;25.90;61.70;;;;;;5078371;28;19912;-79
2022/09/30 14:16:34;;;;;;;;;;;25.90;61.60;;;;;;5075639;28;19916;-78
2022/09/30 14:19:17;;;;;;;;;;;25.80;61.60;;;;;;5076813;28;19911;-77
2022/09/30 14:21:44;;;;;;;;;;;25.80;61.40;;;;;;5075099;28;19919;-78
2022/09/30 14:24:13;;;;;;;;;;;25.80;61.40;;;;;;5057003;28;19916;-77
2022/09/30 14:26:58;;;;;;;;;;;25.80;61.30;;;;;;5062392;28;19926;-78
2022/09/30 14:29:33;;;;;;;;;;;25.70;61.10;;;;;;5077591;28;20431;-77
2022/09/30 14:31:58;;;;;;;;;;;25.50;61.10;;;;;;5060726;28;19966;-78
2022/09/30 14:34:24;;;;;;;;;;;25.40;61.20;;;;;;5075812;28;20519;-78
2022/09/30 14:36:50;;;;;;;;;;;25.30;61.20;;;;;;5062242;28;20022;-78
2022/09/30 14:39:17;;;;;;;;;;;25.20;61.30;;;;;;5062491;28;20008;-78
2022/09/30 14:41:47;;;;;;;;;;;25.10;61.40;;;;;;5048436;28;20395;-78
2022/09/30 14:44:15;;;;;;;;;;;25.00;61.40;;;;;;5063163;28;19958;-78